createdAt,value
2023-03-18T00:03:18.245Z,11.80
2023-03-18T00:07:19.884Z,11.80
2023-03-18T00:11:21.829Z,11.70
2023-03-18T00:15:23.415Z,11.80
2023-03-18T00:19:25.218Z,11.80
2023-03-18T00:23:27.951Z,11.80
2023-03-18T00:27:30.331Z,11.80
2023-03-18T00:31:32.102Z,11.70
2023-03-18T00:35:34.376Z,11.70
2023-03-18T00:39:37.408Z,11.70
2023-03-18T00:43:46.669Z,11.70
2023-03-18T00:47:49.391Z,11.60
2023-03-18T00:51:51.933Z,11.60
2023-03-18T00:55:53.903Z,11.60
2023-03-18T00:59:55.891Z,11.50
2023-03-18T01:03:57.808Z,11.40
2023-03-18T01:07:59.606Z,11.40
2023-03-18T01:12:01.231Z,11.40
2023-03-18T01:16:03.545Z,11.40
2023-03-18T01:20:06.064Z,11.40
2023-03-18T01:24:07.988Z,11.30
2023-03-18T01:28:10.634Z,11.30
2023-03-18T01:32:13.154Z,11.30
2023-03-18T01:36:15.537Z,11.30
2023-03-18T01:40:17.401Z,11.30
2023-03-18T01:44:20.751Z,11.30
2023-03-18T01:48:25.226Z,11.20
2023-03-18T01:52:29.246Z,11.20
2023-03-18T01:56:30.918Z,11.20
2023-03-18T02:00:33.495Z,11.10
2023-03-18T02:04:38.027Z,11.10
2023-03-18T02:08:40.315Z,11.00
2023-03-18T02:12:45.571Z,10.80
2023-03-18T02:16:51.088Z,10.70
2023-03-18T02:20:55.713Z,10.70
2023-03-18T02:25:06.782Z,10.60
2023-03-18T02:29:08.887Z,10.60
2023-03-18T02:38:14.478Z,10.50
2023-03-18T02:42:16.857Z,10.40
2023-03-18T02:46:37.345Z,10.40
2023-03-18T02:50:42.230Z,10.30
2023-03-18T02:54:44.213Z,10.30
2023-03-18T02:58:46.471Z,10.20
2023-03-18T03:02:48.093Z,10.10
2023-03-18T03:06:50.119Z,10.10
2023-03-18T03:10:54.501Z,10.10
2023-03-18T03:14:56.530Z,10.00
2023-03-18T03:18:58.818Z,10.00
2023-03-18T03:23:00.431Z,9.90
2023-03-18T03:27:02.061Z,9.80
2023-03-18T03:31:03.750Z,9.80
2023-03-18T03:35:07.626Z,9.70
2023-03-18T03:39:09.258Z,9.70
2023-03-18T03:43:12.829Z,9.60
2023-03-18T03:47:14.464Z,9.40
2023-03-18T03:51:16.110Z,9.50
2023-03-18T03:55:19.520Z,9.50
2023-03-18T03:59:21.137Z,9.60
2023-03-18T04:03:23.625Z,9.70
2023-03-18T04:07:25.364Z,9.70
2023-03-18T04:11:26.945Z,9.70
2023-03-18T04:15:28.598Z,9.70
2023-03-18T04:19:30.480Z,9.70
2023-03-18T04:23:33.190Z,9.80
2023-03-18T04:27:56.194Z,9.80
2023-03-18T04:31:59.038Z,9.80
2023-03-18T04:36:00.794Z,9.90
2023-03-18T04:40:02.469Z,9.90
2023-03-18T04:44:04.106Z,9.80
2023-03-18T04:48:05.900Z,9.70
2023-03-18T04:52:07.670Z,9.70
2023-03-18T04:56:09.216Z,9.60
2023-03-18T05:00:12.223Z,9.60
2023-03-18T05:04:13.835Z,9.50
2023-03-18T05:08:16.268Z,9.50
2023-03-18T05:12:17.988Z,9.60
2023-03-18T05:16:19.800Z,9.50
2023-03-18T05:20:21.550Z,9.50
2023-03-18T05:24:23.463Z,9.50
2023-03-18T05:28:25.266Z,9.50
2023-03-18T05:32:26.875Z,9.40
2023-03-18T05:36:29.553Z,9.40
2023-03-18T05:40:31.535Z,9.50
2023-03-18T05:44:33.949Z,9.40
2023-03-18T05:48:35.551Z,9.30
2023-03-18T05:52:38.188Z,9.30
2023-03-18T05:56:39.820Z,9.30
2023-03-18T06:00:41.592Z,9.10
2023-03-18T06:04:43.268Z,9.00
2023-03-18T06:08:45.166Z,9.00
2023-03-18T06:12:47.204Z,8.60
2023-03-18T06:16:48.901Z,8.50
2023-03-18T06:20:50.860Z,8.70
2023-03-18T06:24:53.103Z,8.40
2023-03-18T06:28:54.770Z,8.30
2023-03-18T06:32:56.466Z,8.50
2023-03-18T06:36:58.166Z,8.70
2023-03-18T06:40:59.879Z,8.90
2023-03-18T06:45:01.944Z,9.10
2023-03-18T06:49:03.529Z,9.20
2023-03-18T06:53:05.848Z,9.50
2023-03-18T06:57:07.542Z,9.80
2023-03-18T07:01:09.346Z,10.10
2023-03-18T07:05:12.682Z,10.40
2023-03-18T07:09:15.472Z,10.60
2023-03-18T07:13:17.107Z,10.70
2023-03-18T07:17:19.785Z,10.70
2023-03-18T07:21:21.382Z,10.70
2023-03-18T07:25:23.256Z,10.80
2023-03-18T07:29:24.993Z,11.00
2023-03-18T07:33:26.652Z,11.00
2023-03-18T07:37:28.766Z,11.10
2023-03-18T07:41:30.572Z,11.10
2023-03-18T07:45:32.555Z,11.20
2023-03-18T07:49:34.552Z,11.30
2023-03-18T07:53:37.305Z,11.30
2023-03-18T07:57:39.037Z,11.30
2023-03-18T08:01:41.355Z,11.30
2023-03-18T08:05:43.102Z,11.40
2023-03-18T08:09:44.856Z,11.40
2023-03-18T08:13:46.445Z,11.60
2023-03-18T08:17:48.050Z,11.70
2023-03-18T08:21:50.012Z,11.70
2023-03-18T08:25:52.193Z,11.80
2023-03-18T08:29:53.792Z,12.00
2023-03-18T08:33:57.048Z,12.00
2023-03-18T08:37:58.677Z,12.10
2023-03-18T08:42:03.185Z,12.10
2023-03-18T08:46:05.652Z,12.10
2023-03-18T08:50:08.958Z,12.20
2023-03-18T08:54:25.247Z,12.30
2023-03-18T08:58:29.920Z,12.40
2023-03-18T09:02:31.683Z,12.60
2023-03-18T09:06:33.303Z,12.60
2023-03-18T09:10:35.666Z,12.70
2023-03-18T09:14:37.251Z,12.80
2023-03-18T09:18:39.568Z,12.70
2023-03-18T09:22:42.096Z,12.80
2023-03-18T09:26:43.885Z,12.90
2023-03-18T09:30:45.552Z,13.00
2023-03-18T09:34:47.214Z,13.10
2023-03-18T09:38:49.022Z,13.30
2023-03-18T09:43:03.751Z,13.30
2023-03-18T09:47:20.746Z,13.50
2023-03-18T09:51:22.983Z,13.70
2023-03-18T09:55:41.093Z,14.00
2023-03-18T09:59:45.829Z,13.80
2023-03-18T10:04:07.766Z,13.90
2023-03-18T10:08:32.476Z,13.90
2023-03-18T10:12:47.281Z,14.10
2023-03-18T10:16:55.195Z,14.30
2023-03-18T10:21:19.732Z,14.20
2023-03-18T10:25:36.440Z,14.20
2023-03-18T10:29:38.465Z,14.40
2023-03-18T10:33:46.661Z,14.60
2023-03-18T10:37:53.904Z,14.70
2023-03-18T10:41:56.284Z,14.80
2023-03-18T10:46:10.113Z,14.70
2023-03-18T10:50:33.386Z,14.60
2023-03-18T10:54:38.981Z,14.60
2023-03-18T10:58:41.456Z,14.80
2023-03-18T11:02:43.664Z,14.70
2023-03-18T11:06:47.579Z,14.70
2023-03-18T11:10:50.740Z,14.70
2023-03-18T11:14:54.691Z,14.80
2023-03-18T11:18:56.747Z,15.10
2023-03-18T11:23:11.874Z,15.20
2023-03-18T11:27:13.926Z,15.60
2023-03-18T11:31:18.853Z,15.80
2023-03-18T11:35:22.259Z,15.90
2023-03-18T11:39:25.032Z,16.20
2023-03-18T11:43:27.724Z,16.30
2023-03-18T11:47:30.642Z,16.40
2023-03-18T11:51:35.243Z,16.30
2023-03-18T11:55:41.930Z,16.20
2023-03-18T11:59:54.706Z,16.30
2023-03-18T12:04:05.854Z,16.30
2023-03-18T12:08:07.733Z,16.40
2023-03-18T12:12:15.562Z,16.20
2023-03-18T12:16:46.842Z,16.30
2023-03-18T12:20:56.988Z,16.20
2023-03-18T12:25:04.864Z,16.10
2023-03-18T12:29:19.527Z,16.10
2023-03-18T12:33:34.136Z,16.10
2023-03-18T12:37:35.704Z,16.20
2023-03-18T12:41:53.023Z,16.10
2023-03-18T12:45:59.758Z,16.10
2023-03-18T12:50:21.831Z,15.80
2023-03-18T12:54:36.757Z,15.70
2023-03-18T12:58:41.058Z,15.80
2023-03-18T13:02:43.659Z,15.80
2023-03-18T13:06:54.647Z,15.80
2023-03-18T13:11:12.234Z,15.70
2023-03-18T13:15:14.036Z,15.70
2023-03-18T13:19:15.822Z,15.60
2023-03-18T13:23:36.463Z,15.50
2023-03-18T13:27:56.420Z,15.40
2023-03-18T13:32:17.251Z,15.20
2023-03-18T13:36:38.212Z,15.40
2023-03-18T13:40:52.393Z,15.50
2023-03-18T13:44:57.369Z,15.90
2023-03-18T13:49:01.315Z,15.80
2023-03-18T13:53:04.002Z,15.80
2023-03-18T13:57:24.477Z,15.80
2023-03-18T14:01:32.952Z,16.10
2023-03-18T14:05:36.968Z,16.30
2023-03-18T14:10:08.321Z,16.70
2023-03-18T14:14:35.781Z,16.70
2023-03-18T14:18:38.080Z,16.90
2023-03-18T14:22:39.720Z,17.10
2023-03-18T14:26:41.332Z,16.90
2023-03-18T14:30:44.230Z,16.90
2023-03-18T14:35:18.104Z,17.40
2023-03-18T14:39:25.647Z,16.90
2023-03-18T14:43:29.970Z,16.90
2023-03-18T14:47:39.647Z,17.00
2023-03-18T14:51:41.342Z,17.20
2023-03-18T14:55:44.142Z,17.10
2023-03-18T14:59:45.776Z,16.70
2023-03-18T15:03:49.770Z,16.40
2023-03-18T15:07:52.806Z,16.30
2023-03-18T15:11:54.708Z,16.30
2023-03-18T15:15:56.790Z,16.10
2023-03-18T15:20:00.114Z,16.20
2023-03-18T15:24:07.434Z,16.30
2023-03-18T15:28:16.288Z,16.20
2023-03-18T15:32:17.998Z,16.30
2023-03-18T15:36:19.944Z,16.40
2023-03-18T15:40:30.698Z,16.70
2023-03-18T15:44:35.554Z,16.90
2023-03-18T15:48:42.174Z,16.50
2023-03-18T15:52:43.805Z,16.40
2023-03-18T15:56:49.474Z,16.40
2023-03-18T16:00:52.622Z,16.40
2023-03-18T16:05:04.814Z,16.70
2023-03-18T16:09:22.775Z,16.90
2023-03-18T16:13:26.618Z,17.00
2023-03-18T16:17:28.291Z,16.80
2023-03-18T16:21:29.896Z,16.70
2023-03-18T16:25:31.851Z,16.60
2023-03-18T16:29:36.770Z,17.10
2023-03-18T16:33:38.768Z,16.80
2023-03-18T16:37:40.616Z,16.40
2023-03-18T16:41:44.018Z,16.40
2023-03-18T16:45:47.265Z,16.20
2023-03-18T16:49:49.075Z,16.10
2023-03-18T16:53:51.550Z,16.00
2023-03-18T16:57:55.704Z,15.80
2023-03-18T17:01:57.424Z,15.50
2023-03-18T17:05:59.101Z,15.40
2023-03-18T17:10:00.902Z,15.20
2023-03-18T17:14:03.275Z,15.30
2023-03-18T17:18:06.610Z,15.20
2023-03-18T17:22:25.751Z,15.10
2023-03-18T17:26:29.673Z,15.00
2023-03-18T17:30:38.944Z,14.90
2023-03-18T17:34:40.984Z,14.70
2023-03-18T17:38:42.621Z,14.60
2023-03-18T17:42:45.722Z,14.50
2023-03-18T17:46:47.332Z,14.40
2023-03-18T17:50:50.191Z,14.30
2023-03-18T17:54:51.805Z,14.20
2023-03-18T17:58:53.948Z,14.10
2023-03-18T18:02:55.877Z,14.10
2023-03-18T18:06:57.578Z,13.90
2023-03-18T18:11:18.783Z,13.80
2023-03-18T18:15:22.401Z,13.70
2023-03-18T18:19:24.218Z,13.60
2023-03-18T18:23:31.182Z,13.50
2023-03-18T18:27:32.764Z,13.40
2023-03-18T18:31:35.683Z,13.40
2023-03-18T18:35:37.360Z,13.30
2023-03-18T18:39:39.012Z,13.20
2023-03-18T18:43:40.674Z,13.10
2023-03-18T18:47:42.876Z,13.20
2023-03-18T18:51:44.434Z,13.30
2023-03-18T18:55:46.825Z,13.20
2023-03-18T18:59:48.431Z,13.20
2023-03-18T19:03:50.241Z,13.30
2023-03-18T19:07:52.634Z,13.30
2023-03-18T19:11:56.269Z,13.20
2023-03-18T19:16:00.081Z,13.10
2023-03-18T19:20:03.004Z,13.10
2023-03-18T19:24:20.564Z,13.20
2023-03-18T19:28:47.785Z,13.20
2023-03-18T19:32:49.932Z,13.10
2023-03-18T19:36:53.384Z,13.10
2023-03-18T19:40:55.567Z,13.00
2023-03-18T19:44:57.673Z,13.00
2023-03-18T19:48:59.355Z,12.90
2023-03-18T19:53:01.111Z,12.90
2023-03-18T19:57:04.341Z,12.90
2023-03-18T20:01:06.010Z,12.90
2023-03-18T20:05:16.710Z,12.80
2023-03-18T20:09:18.584Z,12.70
2023-03-18T20:13:20.282Z,12.60
2023-03-18T20:17:22.246Z,12.60
2023-03-18T20:21:26.953Z,12.50
2023-03-18T20:25:41.155Z,12.50
2023-03-18T20:29:44.328Z,12.50
2023-03-18T20:33:46.169Z,12.50
2023-03-18T20:37:48.167Z,12.50
2023-03-18T20:41:50.563Z,12.40
2023-03-18T20:45:53.061Z,12.40
2023-03-18T20:49:55.524Z,12.40
2023-03-18T20:53:57.192Z,12.30
2023-03-18T20:58:00.093Z,12.30
2023-03-18T21:02:01.778Z,12.20
2023-03-18T21:06:03.898Z,12.20
2023-03-18T21:10:06.777Z,12.20
2023-03-18T21:14:13.975Z,12.20
2023-03-18T21:18:15.736Z,12.20
2023-03-18T21:22:21.704Z,12.10
2023-03-18T21:26:23.724Z,12.20
2023-03-18T21:30:25.620Z,12.10
2023-03-18T21:34:27.782Z,12.10
2023-03-18T21:38:30.743Z,12.00
2023-03-18T21:42:33.901Z,11.80
2023-03-18T21:46:35.574Z,11.80
2023-03-18T21:50:37.218Z,11.90
2023-03-18T21:54:38.866Z,12.00
2023-03-18T21:58:40.874Z,11.90
2023-03-18T22:02:42.659Z,12.00
2023-03-18T22:06:44.365Z,12.00
2023-03-18T22:10:46.667Z,12.00
2023-03-18T22:14:48.288Z,12.00
2023-03-18T22:18:49.984Z,11.90
2023-03-18T22:22:51.717Z,11.90
2023-03-18T22:26:53.366Z,11.90
2023-03-18T22:30:55.865Z,11.90
2023-03-18T22:34:57.695Z,11.90
2023-03-18T22:38:59.405Z,12.00
2023-03-18T22:43:01.834Z,12.10
2023-03-18T22:47:04.721Z,12.10
2023-03-18T22:51:06.715Z,12.20
2023-03-18T22:55:16.345Z,12.30
2023-03-18T22:59:17.972Z,12.30
2023-03-18T23:03:22.689Z,12.40
2023-03-18T23:07:25.478Z,12.40
2023-03-18T23:11:27.137Z,12.30
2023-03-18T23:15:28.784Z,12.30
2023-03-18T23:19:30.408Z,12.30
2023-03-18T23:23:32.122Z,12.30
2023-03-18T23:27:34.611Z,12.20
2023-03-18T23:31:36.241Z,12.20
2023-03-18T23:35:38.118Z,12.10
2023-03-18T23:39:43.006Z,12.00
2023-03-18T23:43:44.675Z,11.90
2023-03-18T23:47:46.628Z,11.80
2023-03-18T23:51:48.288Z,11.70
2023-03-18T23:55:50.185Z,11.60
2023-03-18T23:59:51.926Z,11.50
